createdAt,value
2018-11-13T00:00:10.643Z,23.1
2018-11-13T00:01:00.675Z,23.1
2018-11-13T00:01:51.046Z,23.1
2018-11-13T00:02:41.418Z,23.1
2018-11-13T00:03:31.823Z,23.1
2018-11-13T00:04:22.015Z,23.1
2018-11-13T00:05:12.225Z,23.1
2018-11-13T00:06:02.333Z,23.1
2018-11-13T00:06:51.747Z,23.1
2018-11-13T00:25:06.052Z,23.1
2018-11-13T00:25:56.577Z,23.1
2018-11-13T00:26:46.489Z,23.1
2018-11-13T00:27:37.264Z,23.1
2018-11-13T00:28:25.680Z,23.1
2018-11-13T00:29:16.292Z,23.1
2018-11-13T00:30:07.126Z,23.1
2018-11-13T00:30:57.294Z,23.1
2018-11-13T00:31:46.386Z,23.1
2018-11-13T00:32:36.725Z,23.1
2018-11-13T00:33:25.445Z,23.1
2018-11-13T00:34:16.883Z,23.1
2018-11-13T00:35:06.982Z,23.1
2018-11-13T00:35:56.192Z,23.1
2018-11-13T00:36:46.843Z,23.1
2018-11-13T00:37:37.410Z,23.1
2018-11-13T00:38:26.935Z,23.1
2018-11-13T00:39:16.769Z,23.1
2018-11-13T00:40:06.761Z,23.1
2018-11-13T00:40:57.089Z,23.1
2018-11-13T00:41:47.668Z,23.1
2018-11-13T00:42:37.420Z,23.1
2018-11-13T00:43:25.977Z,23.1
2018-11-13T00:44:17.075Z,23.1
2018-11-13T00:45:07.123Z,23.1
2018-11-13T00:46:00.892Z,23.1
2018-11-13T00:46:47.645Z,23.1
2018-11-13T00:47:37.314Z,23.1
2018-11-13T00:48:30.642Z,23.1
2018-11-13T00:49:18.272Z,23.1
2018-11-13T00:50:08.859Z,23.1
2018-11-13T00:50:59.842Z,23.1
2018-11-13T00:51:48.388Z,23.1
2018-11-13T00:52:37.214Z,23
2018-11-13T00:53:27.456Z,23
2018-11-13T00:54:18.154Z,23.1
2018-11-13T00:55:09.191Z,23
2018-11-13T00:55:58.343Z,23
2018-11-13T00:56:49.513Z,23
2018-11-13T00:57:38.806Z,23
2018-11-13T00:58:28.591Z,23.1
2018-11-13T00:59:19.624Z,23
2018-11-13T01:00:09.213Z,23
2018-11-13T01:00:59.751Z,23
2018-11-13T01:01:48.936Z,23
2018-11-13T01:02:39.254Z,23
2018-11-13T01:03:28.658Z,23
2018-11-13T01:04:18.975Z,23
2018-11-13T01:05:10.400Z,23
2018-11-13T01:05:58.594Z,23
2018-11-13T01:06:49.168Z,23
2018-11-13T01:07:40.016Z,23
2018-11-13T01:08:29.650Z,23
2018-11-13T01:09:18.317Z,23
2018-11-13T01:10:09.518Z,23
2018-11-13T01:10:59.617Z,23
2018-11-13T01:11:49.857Z,23
2018-11-13T01:12:39.803Z,23
2018-11-13T01:13:31.567Z,23
2018-11-13T01:14:20.580Z,23
2018-11-13T01:15:12.309Z,23
2018-11-13T01:15:59.545Z,22.9
2018-11-13T01:16:49.654Z,23
2018-11-13T01:17:40.020Z,23
2018-11-13T01:18:30.030Z,22.9
2018-11-13T01:19:19.827Z,23
2018-11-13T01:20:10.407Z,23
2018-11-13T01:21:01.487Z,22.9
2018-11-13T01:21:50.833Z,23
2018-11-13T01:22:41.580Z,23
2018-11-13T01:23:30.937Z,23
2018-11-13T01:24:21.764Z,23
2018-11-13T01:25:09.894Z,22.9
2018-11-13T01:26:00.719Z,22.9
2018-11-13T01:26:50.841Z,22.9
2018-11-13T01:27:41.222Z,22.9
2018-11-13T01:28:31.002Z,22.9
2018-11-13T01:29:20.561Z,22.9
2018-11-13T01:30:10.676Z,22.9
2018-11-13T01:31:00.777Z,22.9
2018-11-13T01:31:51.034Z,22.9
2018-11-13T01:32:40.073Z,22.9
2018-11-13T01:33:30.988Z,22.9
2018-11-13T01:34:21.449Z,22.9
2018-11-13T01:35:11.218Z,22.9
2018-11-13T01:36:01.685Z,22.9
2018-11-13T01:36:50.619Z,22.9
2018-11-13T01:37:41.530Z,22.9
2018-11-13T01:38:31.233Z,22.9
2018-11-13T01:39:21.868Z,22.9
2018-11-13T01:40:10.673Z,22.9
2018-11-13T01:41:00.926Z,22.9
2018-11-13T01:41:53.688Z,22.9
2018-11-13T01:42:41.068Z,22.9
2018-11-13T01:43:31.100Z,22.9
2018-11-13T01:44:21.171Z,22.9
2018-11-13T01:45:11.236Z,22.9
2018-11-13T01:46:02.094Z,22.9
2018-11-13T01:46:51.163Z,22.9
2018-11-13T01:47:41.920Z,22.9
2018-11-13T01:48:32.035Z,22.9
2018-11-13T01:49:23.284Z,22.9
2018-11-13T01:50:10.914Z,22.9
2018-11-13T01:51:01.170Z,22.9
2018-11-13T01:51:52.764Z,22.9
2018-11-13T01:52:41.955Z,22.9
2018-11-13T01:53:32.320Z,22.9
2018-11-13T01:54:22.493Z,22.9
2018-11-13T01:55:11.478Z,22.9
2018-11-13T01:56:01.909Z,22.9
2018-11-13T01:56:52.492Z,22.9
2018-11-13T01:57:42.615Z,22.9
2018-11-13T01:58:32.024Z,22.9
2018-11-13T01:59:22.777Z,22.9
2018-11-13T02:00:12.770Z,22.9
2018-11-13T02:01:03.235Z,22.9
2018-11-13T02:01:53.164Z,22.9
2018-11-13T02:02:43.612Z,22.9
2018-11-13T02:03:32.562Z,22.9
2018-11-13T02:04:22.213Z,22.9
2018-11-13T02:05:13.260Z,22.9
2018-11-13T02:06:02.857Z,22.9
2018-11-13T02:06:52.941Z,22.8
2018-11-13T02:07:43.568Z,22.8
2018-11-13T02:08:33.114Z,22.8
2018-11-13T02:09:23.687Z,22.8
2018-11-13T02:10:14.373Z,22.8
2018-11-13T02:11:03.186Z,22.8
2018-11-13T02:11:54.070Z,22.8
2018-11-13T02:12:43.581Z,22.8
2018-11-13T02:13:33.701Z,22.8
2018-11-13T02:14:23.831Z,22.8
2018-11-13T02:15:14.375Z,22.8
2018-11-13T02:16:05.025Z,22.8
2018-11-13T02:16:54.300Z,22.8
2018-11-13T02:17:44.540Z,22.8
2018-11-13T02:18:33.557Z,22.8
2018-11-13T02:19:24.299Z,22.8
2018-11-13T02:20:13.188Z,22.8
2018-11-13T02:21:03.043Z,22.8
2018-11-13T02:21:53.670Z,22.8
2018-11-13T02:22:44.190Z,22.8
2018-11-13T02:23:33.987Z,22.8
2018-11-13T02:24:23.260Z,22.8
2018-11-13T02:25:14.037Z,22.8
2018-11-13T02:26:04.551Z,22.8
2018-11-13T02:26:54.920Z,22.8
2018-11-13T02:27:45.282Z,22.8
2018-11-13T02:28:34.792Z,22.8
2018-11-13T02:29:25.190Z,22.8
2018-11-13T02:30:14.873Z,22.8
2018-11-13T02:31:05.520Z,22.8
2018-11-13T02:31:55.564Z,22.8
2018-11-13T02:32:45.677Z,22.8
2018-11-13T02:33:34.817Z,22.8
2018-11-13T02:34:24.908Z,22.8
2018-11-13T02:35:15.609Z,22.8
2018-11-13T02:36:05.090Z,22.7
2018-11-13T02:36:55.968Z,22.7
2018-11-13T02:37:45.442Z,22.8
2018-11-13T02:38:35.464Z,22.7
2018-11-13T02:39:26.414Z,22.7
2018-11-13T02:40:15.918Z,22.8
2018-11-13T02:41:05.482Z,22.7
2018-11-13T02:41:56.521Z,22.7
2018-11-13T02:42:46.011Z,22.7
2018-11-13T02:43:35.354Z,22.7
2018-11-13T02:44:26.259Z,22.7
2018-11-13T02:45:15.756Z,22.7
2018-11-13T02:46:05.725Z,22.7
2018-11-13T02:46:56.206Z,22.7
2018-11-13T02:47:46.159Z,22.7
2018-11-13T02:48:35.019Z,22.6
2018-11-13T02:49:26.968Z,22.7
2018-11-13T02:50:15.921Z,22.7
2018-11-13T02:51:07.518Z,22.7
2018-11-13T02:51:57.421Z,22.7
2018-11-13T02:52:47.046Z,22.7
2018-11-13T02:53:36.136Z,22.6
2018-11-13T02:54:27.178Z,22.6
2018-11-13T02:55:17.008Z,22.7
2018-11-13T02:56:06.232Z,22.6
2018-11-13T02:56:56.673Z,22.6
2018-11-13T02:57:47.212Z,22.6
2018-11-13T02:58:37.773Z,22.6
2018-11-13T02:59:27.556Z,22.6
2018-11-13T03:00:17.290Z,22.6
2018-11-13T03:01:07.138Z,22.6
2018-11-13T03:01:57.032Z,22.6
2018-11-13T03:02:47.232Z,22.6
2018-11-13T03:03:37.431Z,22.6
2018-11-13T03:04:26.843Z,22.6
2018-11-13T03:05:18.571Z,22.6
2018-11-13T03:06:07.989Z,22.6
2018-11-13T03:06:57.499Z,22.6
2018-11-13T03:07:48.133Z,22.6
2018-11-13T03:08:38.125Z,22.6
2018-11-13T03:09:27.477Z,22.6
2018-11-13T03:10:17.779Z,22.6
2018-11-13T03:11:08.677Z,22.6
2018-11-13T03:11:57.385Z,22.6
2018-11-13T03:12:48.602Z,22.6
2018-11-13T03:13:38.814Z,22.6
2018-11-13T03:14:27.641Z,22.6
2018-11-13T03:15:18.460Z,22.6
2018-11-13T03:16:08.729Z,22.6
2018-11-13T03:16:58.750Z,22.6
2018-11-13T03:17:48.665Z,22.6
2018-11-13T03:18:38.434Z,22.6
2018-11-13T03:19:27.677Z,22.6
2018-11-13T03:20:18.002Z,22.6
2018-11-13T03:21:08.704Z,22.6
2018-11-13T03:21:58.329Z,22.6
2018-11-13T03:22:48.615Z,22.6
2018-11-13T03:23:38.975Z,22.6
2018-11-13T03:24:29.056Z,22.6
2018-11-13T03:25:19.099Z,22.6
2018-11-13T03:26:09.667Z,22.6
2018-11-13T03:26:58.699Z,22.6
2018-11-13T03:27:49.084Z,22.6
2018-11-13T03:28:39.329Z,22.5
2018-11-13T03:29:29.413Z,22.6
2018-11-13T03:30:19.546Z,22.5
2018-11-13T03:31:10.217Z,22.6
2018-11-13T03:32:00.441Z,22.6
2018-11-13T03:32:49.478Z,22.5
2018-11-13T03:33:40.275Z,22.5
2018-11-13T03:34:29.461Z,22.6
2018-11-13T03:35:19.272Z,22.5
2018-11-13T03:36:09.875Z,22.5
2018-11-13T03:36:59.851Z,22.5
2018-11-13T03:37:49.697Z,22.5
2018-11-13T03:38:40.343Z,22.5
2018-11-13T03:39:30.463Z,22.5
2018-11-13T03:40:20.188Z,22.5
2018-11-13T03:41:09.567Z,22.5
2018-11-13T03:42:00.088Z,22.5
2018-11-13T03:42:50.420Z,22.5
2018-11-13T03:43:40.690Z,22.5
2018-11-13T03:44:30.247Z,22.5
2018-11-13T03:45:19.745Z,22.5
2018-11-13T03:46:09.771Z,22.5
2018-11-13T03:47:00.495Z,22.5
2018-11-13T03:47:50.510Z,22.5
2018-11-13T03:48:40.503Z,22.5
2018-11-13T03:49:30.240Z,22.5
2018-11-13T03:50:20.208Z,22.5
2018-11-13T03:51:10.938Z,22.5
2018-11-13T03:52:01.091Z,22.5
2018-11-13T03:52:50.573Z,22.4
2018-11-13T03:53:40.460Z,22.4
2018-11-13T03:54:30.475Z,22.5
2018-11-13T03:55:20.846Z,22.5
2018-11-13T03:56:10.704Z,22.4
2018-11-13T03:57:00.619Z,22.4
2018-11-13T03:57:51.654Z,22.4
2018-11-13T03:58:41.535Z,22.4
2018-11-13T03:59:30.559Z,22.4
2018-11-13T04:00:21.972Z,22.5
2018-11-13T04:01:11.684Z,22.4
2018-11-13T04:02:01.147Z,22.4
2018-11-13T04:02:52.335Z,22.4
2018-11-13T04:03:42.439Z,22.4
2018-11-13T04:04:31.496Z,22.4
2018-11-13T04:05:22.239Z,22.4
2018-11-13T04:06:11.729Z,22.4
2018-11-13T04:07:02.056Z,22.4
2018-11-13T04:07:52.168Z,22.4
2018-11-13T04:08:42.396Z,22.4
2018-11-13T04:09:32.041Z,22.4
2018-11-13T04:10:21.327Z,22.4
2018-11-13T04:11:12.696Z,22.4
2018-11-13T04:12:02.743Z,22.4
2018-11-13T04:12:53.641Z,22.4
2018-11-13T04:13:41.971Z,22.4
2018-11-13T04:14:32.311Z,22.4
2018-11-13T04:15:22.769Z,22.4
2018-11-13T04:16:13.297Z,22.4
2018-11-13T04:17:02.313Z,22.4
2018-11-13T04:17:53.678Z,22.4
2018-11-13T04:18:42.605Z,22.4
2018-11-13T04:19:32.948Z,22.4
2018-11-13T04:20:23.595Z,22.4
2018-11-13T04:21:13.077Z,22.4
2018-11-13T04:22:02.591Z,22.4
2018-11-13T04:22:52.869Z,22.4
2018-11-13T04:23:43.260Z,22.4
2018-11-13T04:24:33.298Z,22.4
2018-11-13T04:25:23.424Z,22.4
2018-11-13T04:26:13.711Z,22.4
2018-11-13T04:27:03.752Z,22.4
2018-11-13T04:27:53.325Z,22.4
2018-11-13T04:28:43.015Z,22.4
2018-11-13T04:29:33.175Z,22.4
2018-11-13T04:30:24.581Z,22.4
2018-11-13T04:31:13.805Z,22.4
2018-11-13T04:32:03.965Z,22.4
2018-11-13T04:32:53.735Z,22.4
2018-11-13T04:33:44.542Z,22.4
2018-11-13T04:34:34.020Z,22.4
2018-11-13T04:35:23.365Z,22.4
2018-11-13T04:36:14.126Z,22.4
2018-11-13T04:37:04.792Z,22.4
2018-11-13T04:54:20.094Z,22.3
2018-11-13T04:55:09.666Z,22.3
2018-11-13T04:55:59.522Z,22.3
2018-11-13T04:56:49.486Z,22.3
2018-11-13T04:57:39.818Z,22.3
2018-11-13T04:58:29.868Z,22.3
2018-11-13T04:59:19.925Z,22.3
2018-11-13T05:00:10.040Z,22.3
2018-11-13T05:00:59.834Z,22.3
2018-11-13T05:01:49.914Z,22.3
2018-11-13T05:02:39.912Z,22.3
2018-11-13T05:03:30.028Z,22.3
2018-11-13T05:04:19.463Z,22.3
2018-11-13T05:05:10.316Z,22.3
2018-11-13T05:06:00.124Z,22.3
2018-11-13T05:06:49.923Z,22.3
2018-11-13T05:07:39.357Z,22.3
2018-11-13T05:08:30.366Z,22.3
2018-11-13T05:09:21.171Z,22.2
2018-11-13T05:10:12.358Z,22.2
2018-11-13T05:10:59.061Z,22.2
2018-11-13T05:11:49.267Z,22.2
2018-11-13T05:12:40.875Z,22.1
2018-11-13T05:13:30.361Z,22.1
2018-11-13T05:14:21.634Z,22.1
2018-11-13T05:15:10.760Z,22.1
2018-11-13T05:16:01.120Z,22.1
2018-11-13T05:16:50.456Z,22.1
2018-11-13T05:17:40.949Z,22
2018-11-13T05:18:31.339Z,22.1
2018-11-13T05:19:20.682Z,22.1
2018-11-13T05:20:11.026Z,22.1
2018-11-13T05:21:01.190Z,22.1
2018-11-13T05:21:51.362Z,22.1
2018-11-13T05:22:41.114Z,22.1
2018-11-13T05:23:31.980Z,22.1
2018-11-13T05:24:20.595Z,22.1
2018-11-13T05:25:11.227Z,22.1
2018-11-13T05:26:01.325Z,22.1
2018-11-13T05:26:50.716Z,22.1
2018-11-13T05:27:41.287Z,22.1
2018-11-13T05:28:31.122Z,22.1
2018-11-13T05:29:21.855Z,22.1
2018-11-13T05:30:11.808Z,22.1
2018-11-13T05:31:00.735Z,22.1
2018-11-13T05:31:51.590Z,22.1
2018-11-13T05:32:41.592Z,22.1
2018-11-13T05:33:32.100Z,22.1
2018-11-13T05:34:22.134Z,22.1
2018-11-13T05:35:12.601Z,22.1
2018-11-13T05:36:01.172Z,22
2018-11-13T05:36:51.451Z,22
2018-11-13T05:37:42.484Z,22
2018-11-13T05:38:31.991Z,22
2018-11-13T05:39:21.449Z,22
2018-11-13T05:40:11.829Z,22
2018-11-13T05:41:02.047Z,22
2018-11-13T05:41:52.197Z,22
2018-11-13T05:42:43.342Z,22
2018-11-13T05:43:31.934Z,22
2018-11-13T05:44:21.778Z,22
2018-11-13T05:45:13.128Z,22
2018-11-13T05:46:02.696Z,21.9
2018-11-13T05:46:52.741Z,21.9
2018-11-13T05:47:42.605Z,21.9
2018-11-13T05:48:32.839Z,21.9
2018-11-13T05:49:21.586Z,21.9
2018-11-13T05:50:12.551Z,21.9
2018-11-13T05:51:02.583Z,21.9
2018-11-13T05:51:52.505Z,21.9
2018-11-13T05:52:42.565Z,21.9
2018-11-13T05:53:31.972Z,21.9
2018-11-13T05:54:23.075Z,21.9
2018-11-13T05:55:13.610Z,21.9
2018-11-13T05:56:03.391Z,21.9
2018-11-13T05:56:53.264Z,21.9
2018-11-13T05:57:44.234Z,21.8
2018-11-13T05:58:32.917Z,21.8
2018-11-13T05:59:23.487Z,21.8
2018-11-13T06:00:12.324Z,21.8
2018-11-13T06:01:03.117Z,21.8
2018-11-13T06:01:53.065Z,21.8
2018-11-13T06:02:43.214Z,21.8
2018-11-13T06:03:34.030Z,21.8
2018-11-13T06:04:23.782Z,21.6
2018-11-13T06:05:14.316Z,21.6
2018-11-13T06:06:04.195Z,21.4
2018-11-13T06:06:55.011Z,21.4
2018-11-13T06:07:43.820Z,21.3
2018-11-13T06:09:24.935Z,21.1
2018-11-13T06:10:15.357Z,20.9
2018-11-13T06:11:04.491Z,20.9
2018-11-13T06:11:55.679Z,20.8
2018-11-13T06:12:44.210Z,20.8
2018-11-13T06:13:34.739Z,20.7
2018-11-13T06:14:25.627Z,20.7
2018-11-13T06:15:14.974Z,20.6
2018-11-13T06:16:04.924Z,20.6
2018-11-13T06:16:54.584Z,20.6
2018-11-13T06:17:44.801Z,20.6
2018-11-13T06:18:34.815Z,20.6
2018-11-13T06:19:25.049Z,20.5
2018-11-13T06:20:15.416Z,20.6
2018-11-13T06:21:05.279Z,20.5
2018-11-13T06:21:55.543Z,20.5
2018-11-13T06:22:45.991Z,20.5
2018-11-13T06:23:35.851Z,20.5
2018-11-13T06:24:26.039Z,20.5
2018-11-13T06:25:15.040Z,20.5
2018-11-13T06:26:05.871Z,20.5
2018-11-13T06:26:55.903Z,20.5
2018-11-13T06:27:44.935Z,20.5
2018-11-13T06:28:35.650Z,20.5
2018-11-13T06:29:25.846Z,20.5
2018-11-13T06:30:15.953Z,20.5
2018-11-13T06:31:05.713Z,20.5
2018-11-13T06:31:55.855Z,20.5
2018-11-13T06:32:46.090Z,20.5
2018-11-13T06:33:36.993Z,20.5
2018-11-13T06:34:26.263Z,20.5
2018-11-13T06:35:16.503Z,20.5
2018-11-13T06:36:06.435Z,20.5
2018-11-13T06:36:55.932Z,20.5
2018-11-13T06:37:47.493Z,20.4
2018-11-13T06:38:36.527Z,20.5
2018-11-13T06:39:25.962Z,20.5
2018-11-13T06:40:16.426Z,20.5
2018-11-13T06:41:06.329Z,20.5
2018-11-13T06:41:55.982Z,20.4
2018-11-13T06:42:46.409Z,20.5
2018-11-13T06:43:36.535Z,20.4
2018-11-13T06:44:26.337Z,20.5
2018-11-13T06:45:15.955Z,20.5
2018-11-13T06:46:07.559Z,20.4
2018-11-13T06:46:56.549Z,20.4
2018-11-13T06:47:46.914Z,20.4
2018-11-13T06:48:36.329Z,20.4
2018-11-13T06:49:27.937Z,20.4
2018-11-13T06:50:18.187Z,20.4
2018-11-13T06:51:07.584Z,20.4
2018-11-13T06:51:57.547Z,20.4
2018-11-13T06:52:47.585Z,20.4
2018-11-13T06:53:36.486Z,20.3
2018-11-13T06:54:26.796Z,20.3
2018-11-13T06:55:17.592Z,20.3
2018-11-13T06:56:07.197Z,20.3
2018-11-13T06:56:57.545Z,20.3
2018-11-13T06:57:47.484Z,20.3
2018-11-13T06:58:37.806Z,20.3
2018-11-13T06:59:27.976Z,20.1
2018-11-13T07:00:18.573Z,20.5
2018-11-13T07:01:07.966Z,19.9
2018-11-13T07:01:58.210Z,21.3
2018-11-13T07:02:48.405Z,24.8
2018-11-13T07:03:37.975Z,26.1
2018-11-13T07:04:28.160Z,25.4
2018-11-13T07:05:19.705Z,24.9
2018-11-13T07:06:08.175Z,24.3
2018-11-13T07:06:58.720Z,23.6
2018-11-13T07:07:47.675Z,23
2018-11-13T07:08:38.231Z,22.7
2018-11-13T07:09:28.338Z,22.5
2018-11-13T07:10:18.361Z,22.4
2018-11-13T07:11:08.696Z,22.2
2018-11-13T07:11:58.323Z,22.1
2018-11-13T07:12:49.775Z,22
2018-11-13T07:13:38.300Z,21.9
2018-11-13T07:14:29.363Z,21.9
2018-11-13T07:15:18.536Z,21.8
2018-11-13T07:16:09.097Z,21.8
2018-11-13T07:16:59.540Z,21.6
2018-11-13T07:17:49.398Z,21.6
2018-11-13T07:18:39.701Z,21.4
2018-11-13T07:19:28.490Z,21.8
2018-11-13T07:20:19.303Z,22.1
2018-11-13T07:21:08.991Z,24.4
2018-11-13T07:21:58.705Z,26.9
2018-11-13T07:22:49.106Z,27.9
2018-11-13T07:23:39.645Z,27.9
2018-11-13T07:24:29.400Z,27.3
2018-11-13T07:25:20.325Z,26.7
2018-11-13T07:26:09.637Z,26.3
2018-11-13T07:27:00.639Z,26.3
2018-11-13T07:27:50.630Z,26.6
2018-11-13T07:28:39.317Z,26.9
2018-11-13T07:29:29.938Z,27.3
2018-11-13T07:30:19.721Z,27.4
2018-11-13T07:31:11.041Z,27.4
2018-11-13T07:32:00.904Z,27.4
2018-11-13T07:32:51.395Z,27.4
2018-11-13T07:33:41.071Z,27.5
2018-11-13T07:34:31.247Z,27.6
2018-11-13T07:36:09.003Z,27.9
2018-11-13T07:37:00.377Z,28.1
2018-11-13T07:37:50.444Z,28.3
2018-11-13T07:38:40.325Z,28.4
2018-11-13T07:39:31.346Z,28.5
2018-11-13T07:40:21.205Z,28.6
2018-11-13T07:41:11.354Z,28.8
2018-11-13T07:42:01.474Z,28.9
2018-11-13T07:42:51.559Z,29.1
2018-11-13T07:43:41.611Z,29.1
2018-11-13T07:44:30.634Z,29.3
2018-11-13T07:45:21.529Z,29.4
2018-11-13T07:46:11.812Z,29.6
2018-11-13T07:47:02.705Z,29.8
2018-11-13T07:47:54.284Z,29.9
2018-11-13T07:48:42.173Z,30.1
2018-11-13T07:49:31.816Z,30.1
2018-11-13T07:50:21.873Z,30.3
2018-11-13T07:51:12.685Z,30.4
2018-11-13T07:52:02.223Z,30.5
2018-11-13T07:52:51.795Z,30.6
2018-11-13T07:53:41.302Z,30.8
2018-11-13T07:54:31.963Z,30.9
2018-11-13T07:55:22.224Z,31.1
2018-11-13T07:56:12.584Z,31.2
2018-11-13T07:57:02.066Z,31.4
2018-11-13T07:57:52.897Z,31.4
2018-11-13T07:58:42.880Z,31.6
2018-11-13T07:59:32.270Z,31.8
2018-11-13T08:00:22.787Z,31.8
2018-11-13T08:01:12.256Z,31.9
2018-11-13T08:02:01.869Z,32.1
2018-11-13T08:02:52.490Z,32.2
2018-11-13T08:03:43.508Z,32.3
2018-11-13T08:04:32.795Z,32.4
2018-11-13T08:05:23.444Z,32.4
2018-11-13T08:06:13.696Z,32.4
2018-11-13T08:07:02.734Z,32.5
2018-11-13T08:07:53.630Z,32.7
2018-11-13T08:08:43.667Z,32.9
2018-11-13T08:09:33.940Z,33.1
2018-11-13T08:10:23.397Z,33.3
2018-11-13T08:11:13.279Z,33.5
2018-11-13T08:12:03.077Z,33.7
2018-11-13T08:12:54.246Z,33.7
2018-11-13T08:13:44.372Z,33.7
2018-11-13T08:14:33.696Z,33.6
2018-11-13T08:15:23.559Z,33.6
2018-11-13T08:16:13.633Z,33.8
2018-11-13T08:17:04.009Z,34.1
2018-11-13T08:17:53.787Z,34.4
2018-11-13T08:18:43.985Z,34.6
2018-11-13T08:19:33.664Z,34.8
2018-11-13T08:20:23.388Z,34.8
2018-11-13T08:21:15.497Z,34.6
2018-11-13T08:22:05.189Z,34.5
2018-11-13T08:22:54.403Z,34.4
2018-11-13T08:23:44.733Z,34.4
2018-11-13T08:24:34.551Z,34.5
2018-11-13T08:25:25.607Z,34.8
2018-11-13T08:26:14.433Z,35.1
2018-11-13T08:27:04.727Z,35.4
2018-11-13T08:27:54.428Z,35.4
2018-11-13T08:28:45.064Z,35.6
2018-11-13T08:29:35.232Z,35.6
2018-11-13T08:30:23.899Z,35.8
2018-11-13T08:31:15.281Z,36
2018-11-13T08:32:04.561Z,36.1
2018-11-13T08:32:54.840Z,36.2
2018-11-13T08:33:45.034Z,36.1
2018-11-13T08:34:35.781Z,36.1
2018-11-13T08:35:24.729Z,36.3
2018-11-13T08:36:14.653Z,36.4
2018-11-13T08:37:04.860Z,36.4
2018-11-13T08:37:55.300Z,36.4
2018-11-13T08:38:45.701Z,36.4
2018-11-13T08:39:35.618Z,36.3
2018-11-13T08:40:25.592Z,36.3
2018-11-13T08:41:15.463Z,36.3
2018-11-13T08:42:05.046Z,36.4
2018-11-13T08:42:55.881Z,36.4
2018-11-13T08:43:45.978Z,36.4
2018-11-13T08:44:35.281Z,36.4
2018-11-13T08:45:25.711Z,36.4
2018-11-13T08:46:16.143Z,36.3
2018-11-13T08:47:06.401Z,36.3
2018-11-13T08:47:55.525Z,36.4
2018-11-13T08:48:45.621Z,36.4
2018-11-13T08:49:35.876Z,36.5
2018-11-13T08:50:26.536Z,36.6
2018-11-13T08:51:15.119Z,36.8
2018-11-13T08:52:07.023Z,36.9
2018-11-13T09:08:47.100Z,40.2
2018-11-13T09:09:37.084Z,40.4
2018-11-13T09:10:27.452Z,40.5
2018-11-13T09:11:17.722Z,40.7
2018-11-13T09:12:08.236Z,40.8
2018-11-13T09:12:56.804Z,40.9
2018-11-13T09:13:47.572Z,41.1
2018-11-13T09:14:37.260Z,41.2
2018-11-13T09:15:27.665Z,41.3
2018-11-13T09:16:17.329Z,41.4
2018-11-13T09:17:07.177Z,41.6
2018-11-13T09:17:58.344Z,41.8
2018-11-13T09:18:49.022Z,41.9
2018-11-13T09:19:41.095Z,42.1
2018-11-13T09:20:27.376Z,42.2
2018-11-13T09:21:18.239Z,42.3
2018-11-13T09:22:08.562Z,42.4
2018-11-13T09:22:58.662Z,42.6
2018-11-13T09:23:48.243Z,42.6
2018-11-13T09:24:37.316Z,42.7
2018-11-13T09:25:28.056Z,42.8
2018-11-13T09:26:18.118Z,42.9
2018-11-13T09:27:08.356Z,43.1
2018-11-13T09:27:58.233Z,43.2
2018-11-13T09:28:48.437Z,43.3
2018-11-13T09:29:38.185Z,43.4
2018-11-13T09:30:30.933Z,43.6
2018-11-13T09:31:18.322Z,43.8
2018-11-13T09:32:08.854Z,43.9
2018-11-13T09:32:59.108Z,44
2018-11-13T09:33:48.386Z,44.1
2018-11-13T09:34:38.650Z,44.2
2018-11-13T09:35:29.010Z,44.3
2018-11-13T09:36:18.639Z,44.4
2018-11-13T09:37:08.285Z,44.5
2018-11-13T09:37:58.872Z,44.6
2018-11-13T09:38:49.492Z,44.7
2018-11-13T09:39:39.498Z,44.8
2018-11-13T09:40:30.190Z,44.9
2018-11-13T09:41:19.170Z,45.1
2018-11-13T09:42:09.432Z,45.2
2018-11-13T09:42:59.857Z,45.3
2018-11-13T09:43:48.995Z,45.4
2018-11-13T09:44:40.411Z,45.4
2018-11-13T09:45:29.750Z,45.5
2018-11-13T09:46:20.838Z,45.6
2018-11-13T09:47:09.873Z,45.8
2018-11-13T09:48:00.615Z,45.9
2018-11-13T09:48:50.497Z,46.1
2018-11-13T09:49:40.119Z,46.3
2018-11-13T09:50:30.649Z,46.4
2018-11-13T09:51:18.931Z,46.5
2018-11-13T09:52:09.982Z,46.6
2018-11-13T09:53:00.777Z,46.7
2018-11-13T09:53:51.096Z,46.9
2018-11-13T09:54:40.299Z,47
2018-11-13T09:55:30.656Z,47.1
2018-11-13T09:56:20.402Z,47.2
2018-11-13T09:57:10.531Z,47.3
2018-11-13T09:58:01.153Z,47.4
2018-11-13T09:58:50.603Z,47.6
2018-11-13T09:59:40.204Z,47.7
2018-11-13T10:00:32.051Z,47.8
2018-11-13T10:01:24.822Z,47.9
2018-11-13T10:02:18.327Z,48.1
2018-11-13T10:03:09.108Z,48.2
2018-11-13T10:03:52.999Z,48.3
2018-11-13T10:04:47.679Z,48.4
2018-11-13T10:05:31.123Z,48.5
2018-11-13T10:06:21.987Z,48.6
2018-11-13T10:07:11.291Z,48.7
2018-11-13T10:08:01.376Z,48.8
2018-11-13T10:08:51.095Z,48.9
2018-11-13T10:09:41.108Z,49
2018-11-13T10:10:31.278Z,49.1
2018-11-13T10:11:21.158Z,49.2
2018-11-13T10:12:11.381Z,49.3
2018-11-13T10:13:01.700Z,49.4
2018-11-13T10:13:52.306Z,49.4
2018-11-13T10:14:41.487Z,49.6
2018-11-13T10:15:31.815Z,49.7
2018-11-13T10:16:21.717Z,49.8
2018-11-13T10:17:12.798Z,49.8
2018-11-13T10:18:03.782Z,49.9
2018-11-13T10:18:51.887Z,50
2018-11-13T10:19:42.203Z,50.1
2018-11-13T10:20:31.510Z,50.3
2018-11-13T10:21:22.218Z,50.3
2018-11-13T10:22:12.612Z,50.4
2018-11-13T10:23:02.772Z,50.6
2018-11-13T10:23:51.740Z,50.6
2018-11-13T10:24:42.472Z,50.8
2018-11-13T10:25:32.300Z,50.9
2018-11-13T10:26:22.622Z,50.9
2018-11-13T10:27:13.201Z,51
2018-11-13T10:28:02.761Z,51.1
2018-11-13T10:28:52.136Z,51.2
2018-11-13T10:29:42.680Z,51.3
2018-11-13T10:30:32.765Z,51.3
2018-11-13T10:31:22.494Z,51.4
2018-11-13T10:32:13.041Z,51.5
2018-11-13T10:33:02.993Z,51.6
2018-11-13T10:33:53.449Z,51.6
2018-11-13T10:34:42.662Z,51.6
2018-11-13T10:35:33.822Z,51.7
2018-11-13T10:36:23.649Z,51.7
2018-11-13T10:37:13.488Z,51.8
2018-11-13T10:38:03.756Z,51.9
2018-11-13T10:39:44.027Z,52
2018-11-13T10:40:35.806Z,52.1
2018-11-13T10:41:23.939Z,52.1
2018-11-13T10:42:13.571Z,52.2
2018-11-13T10:43:03.974Z,52.2
2018-11-13T10:43:53.406Z,52.3
2018-11-13T10:45:33.731Z,52.4
2018-11-13T10:46:24.048Z,52.5
2018-11-13T10:47:13.648Z,52.6
2018-11-13T10:48:02.696Z,52.6
2018-11-13T10:48:54.836Z,52.7
2018-11-13T10:49:43.856Z,52.8
2018-11-13T10:50:34.488Z,52.8
2018-11-13T10:51:24.221Z,52.9
2018-11-13T10:52:14.553Z,52.9
2018-11-13T10:53:03.966Z,52.9
2018-11-13T10:53:54.288Z,53
2018-11-13T10:54:44.649Z,53
2018-11-13T10:55:34.817Z,53.1
2018-11-13T10:56:25.659Z,53.1
2018-11-13T10:57:14.260Z,53.1
2018-11-13T10:58:04.990Z,53.2
2018-11-13T10:58:54.690Z,53.3
2018-11-13T10:59:44.770Z,53.3
2018-11-13T11:00:35.095Z,53.3
2018-11-13T11:01:24.950Z,53.4
2018-11-13T11:02:15.898Z,53.4
2018-11-13T11:03:07.481Z,53.4
2018-11-13T11:03:55.312Z,53.5
2018-11-13T11:04:45.370Z,53.6
2018-11-13T11:05:35.784Z,53.6
2018-11-13T11:06:25.817Z,53.6
2018-11-13T11:07:15.534Z,53.7
2018-11-13T11:08:06.294Z,53.7
2018-11-13T11:08:54.524Z,53.8
2018-11-13T11:09:45.047Z,53.8
2018-11-13T11:10:35.289Z,53.9
2018-11-13T11:11:26.128Z,53.9
2018-11-13T11:12:15.642Z,54
2018-11-13T11:13:06.952Z,54.1
2018-11-13T11:13:57.796Z,54.1
2018-11-13T11:14:45.634Z,54.1
2018-11-13T11:15:36.459Z,54.3
2018-11-13T11:16:26.534Z,54.3
2018-11-13T11:17:16.164Z,54.3
2018-11-13T11:18:06.387Z,54.3
2018-11-13T11:18:57.596Z,54.4
2018-11-13T11:19:46.765Z,54.4
2018-11-13T11:20:37.091Z,54.5
2018-11-13T11:21:26.519Z,54.6
2018-11-13T11:22:16.704Z,54.6
2018-11-13T11:23:06.823Z,54.6
2018-11-13T11:23:57.714Z,54.8
2018-11-13T11:24:47.116Z,54.7
2018-11-13T11:25:36.228Z,54.7
2018-11-13T11:26:27.812Z,54.7
2018-11-13T11:27:17.293Z,54.8
2018-11-13T11:28:06.501Z,54.8
2018-11-13T11:28:57.491Z,54.9
2018-11-13T11:29:47.761Z,54.9
2018-11-13T11:30:37.027Z,54.9
2018-11-13T11:31:27.308Z,54.9
2018-11-13T11:32:17.110Z,55
2018-11-13T11:33:07.536Z,55
2018-11-13T11:33:57.453Z,55.1
2018-11-13T11:34:47.531Z,55.1
2018-11-13T11:35:38.168Z,55.1
2018-11-13T11:36:26.540Z,55.1
2018-11-13T11:37:18.547Z,55.2
2018-11-13T11:38:06.855Z,55.3
2018-11-13T11:39:00.330Z,55.3
2018-11-13T11:39:47.793Z,55.3
2018-11-13T11:40:38.547Z,55.4
2018-11-13T11:41:28.025Z,55.4
2018-11-13T11:42:17.872Z,55.4
2018-11-13T11:43:08.631Z,55.4
2018-11-13T11:43:58.472Z,55.4
2018-11-13T11:44:48.062Z,55.4
2018-11-13T11:45:38.625Z,55.5
2018-11-13T11:46:28.668Z,55.5
2018-11-13T11:47:17.654Z,55.6
2018-11-13T11:48:08.887Z,55.6
2018-11-13T11:48:57.697Z,55.6
2018-11-13T11:49:48.393Z,55.6
2018-11-13T11:50:38.761Z,55.6
2018-11-13T11:51:28.241Z,55.7
2018-11-13T11:52:17.934Z,55.7
2018-11-13T11:53:09.199Z,55.7
2018-11-13T11:54:00.604Z,55.7
2018-11-13T11:54:49.564Z,55.7
2018-11-13T11:55:39.353Z,55.8
2018-11-13T11:56:28.198Z,55.8
2018-11-13T11:57:18.865Z,55.8
2018-11-13T11:58:09.046Z,55.8
2018-11-13T11:58:58.411Z,55.9
2018-11-13T11:59:49.055Z,55.9
2018-11-13T12:00:40.023Z,55.8
2018-11-13T12:01:29.191Z,55.9
2018-11-13T12:02:20.280Z,55.9